createdAt,value
2018-07-16T00:00:40.801Z,67.05
2018-07-16T00:03:10.133Z,66.32
2018-07-16T00:05:39.470Z,67.39
2018-07-16T00:08:08.788Z,66.72
2018-07-16T00:10:38.120Z,67.18
2018-07-16T00:13:07.489Z,66.88
2018-07-16T00:15:36.817Z,67.15
2018-07-16T00:18:06.212Z,67.04
2018-07-16T00:20:35.561Z,67.63
2018-07-16T00:23:04.929Z,66.49
2018-07-16T00:25:34.256Z,66.16
2018-07-16T00:28:03.656Z,68.05
2018-07-16T00:30:32.962Z,67.54
2018-07-16T00:33:02.285Z,67.13
2018-07-16T00:35:31.656Z,66.85
2018-07-16T00:38:00.968Z,67.67
2018-07-16T00:40:30.324Z,68.79
2018-07-16T00:42:59.693Z,69.00
2018-07-16T00:45:29.012Z,68.78
2018-07-16T00:47:58.401Z,69.75
2018-07-16T00:50:27.732Z,69.68
2018-07-16T00:52:57.063Z,69.14
2018-07-16T00:55:26.391Z,70.19
2018-07-16T00:57:55.796Z,68.58
2018-07-16T01:00:25.116Z,69.86
2018-07-16T01:02:54.448Z,69.40
2018-07-16T01:05:23.773Z,69.04
2018-07-16T01:07:53.100Z,69.84
2018-07-16T01:10:22.431Z,68.89
2018-07-16T01:12:51.792Z,70.61
2018-07-16T01:15:21.137Z,69.96
2018-07-16T01:17:50.575Z,69.40
2018-07-16T01:20:19.997Z,69.68
2018-07-16T01:22:49.303Z,70.51
2018-07-16T01:25:18.684Z,70.06
2018-07-16T01:27:48.045Z,70.33
2018-07-16T01:30:17.379Z,70.32
2018-07-16T01:32:46.747Z,69.47
2018-07-16T01:35:16.103Z,70.12
2018-07-16T01:37:45.468Z,69.89
2018-07-16T01:40:14.832Z,70.94
2018-07-16T01:42:44.391Z,70.07
2018-07-16T01:45:13.734Z,70.66
2018-07-16T01:47:43.072Z,71.81
2018-07-16T01:50:12.404Z,70.81
2018-07-16T01:52:41.745Z,71.79
2018-07-16T01:55:11.088Z,71.13
2018-07-16T01:57:40.400Z,71.81
2018-07-16T02:00:09.735Z,71.31
2018-07-16T02:02:39.084Z,71.57
2018-07-16T02:05:08.504Z,71.74
2018-07-16T02:07:37.840Z,72.48
2018-07-16T02:10:07.223Z,72.54
2018-07-16T02:12:36.552Z,73.03
2018-07-16T02:15:05.979Z,73.43
2018-07-16T02:17:39.076Z,73.57
2018-07-16T02:20:09.509Z,73.36
2018-07-16T02:22:39.144Z,73.76
2018-07-16T02:25:09.152Z,73.81
2018-07-16T02:27:38.516Z,73.45
2018-07-16T02:30:07.884Z,74.90
2018-07-16T02:32:37.253Z,76.19
2018-07-16T02:35:06.621Z,75.93
2018-07-16T02:37:35.936Z,77.27
2018-07-16T02:40:05.356Z,77.99
2018-07-16T02:42:34.693Z,78.60
2018-07-16T02:45:04.186Z,78.53
2018-07-16T02:47:33.586Z,79.44
2018-07-16T02:50:02.961Z,78.26
2018-07-16T02:52:32.489Z,78.59
2018-07-16T02:55:01.805Z,78.97
2018-07-16T02:57:31.176Z,79.87
2018-07-16T03:00:00.513Z,78.94
2018-07-16T03:02:29.885Z,77.77
2018-07-16T03:04:59.215Z,78.85
2018-07-16T03:07:28.600Z,79.01
2018-07-16T03:09:58.009Z,79.05
2018-07-16T03:12:27.345Z,79.13
2018-07-16T03:14:57.049Z,80.17
2018-07-16T03:17:26.421Z,79.94
2018-07-16T03:19:55.746Z,80.53
2018-07-16T03:22:25.117Z,80.82
2018-07-16T03:24:54.448Z,81.14
2018-07-16T03:27:23.805Z,80.99
2018-07-16T03:29:53.156Z,81.49
2018-07-16T03:32:22.527Z,80.41
2018-07-16T03:34:51.867Z,80.67
2018-07-16T03:37:21.267Z,81.62
2018-07-16T03:39:50.595Z,82.08
2018-07-16T03:42:19.953Z,82.65
2018-07-16T03:44:49.320Z,83.00
2018-07-16T03:47:18.644Z,82.53
2018-07-16T03:49:47.980Z,82.01
2018-07-16T03:52:17.305Z,82.74
2018-07-16T03:54:46.673Z,82.39
2018-07-16T03:57:16.020Z,82.96
2018-07-16T03:59:45.353Z,82.85
2018-07-16T04:02:14.707Z,82.61
2018-07-16T04:04:44.032Z,83.79
2018-07-16T04:07:13.368Z,83.45
2018-07-16T04:09:42.732Z,82.50
2018-07-16T04:12:12.064Z,82.64
2018-07-16T04:14:41.385Z,82.25
2018-07-16T04:17:11.077Z,82.46
2018-07-16T04:19:40.411Z,82.69
2018-07-16T04:22:09.736Z,83.01
2018-07-16T04:24:38.796Z,83.31
2018-07-16T04:27:08.179Z,82.29
2018-07-16T04:29:37.527Z,82.10
2018-07-16T04:32:06.920Z,81.46
2018-07-16T04:34:36.250Z,80.83
2018-07-16T04:37:05.592Z,80.09
2018-07-16T04:39:34.928Z,81.22
2018-07-16T04:42:04.524Z,80.88
2018-07-16T04:44:34.088Z,78.93
2018-07-16T04:47:03.730Z,78.28
2018-07-16T04:49:33.331Z,78.09
2018-07-16T04:52:02.667Z,76.70
2018-07-16T04:54:31.992Z,76.99
2018-07-16T04:57:01.443Z,76.39
2018-07-16T04:59:30.776Z,75.81
2018-07-16T05:02:00.108Z,76.15
2018-07-16T05:04:29.475Z,76.40
2018-07-16T05:06:58.806Z,74.95
2018-07-16T05:09:28.185Z,75.05
2018-07-16T05:11:57.552Z,74.29
2018-07-16T05:14:26.884Z,74.69
2018-07-16T05:16:56.217Z,74.51
2018-07-16T05:19:25.540Z,75.79
2018-07-16T05:21:54.864Z,75.41
2018-07-16T05:24:24.200Z,74.70
2018-07-16T05:26:53.608Z,73.02
2018-07-16T05:29:22.972Z,72.70
2018-07-16T05:31:52.360Z,74.72
2018-07-16T05:34:21.718Z,74.76
2018-07-16T05:36:51.032Z,74.80
2018-07-16T05:39:20.540Z,74.96
2018-07-16T05:41:49.897Z,73.25
2018-07-16T05:44:19.225Z,73.70
2018-07-16T05:46:48.769Z,73.22
2018-07-16T05:49:18.112Z,72.30
2018-07-16T05:51:47.556Z,72.53
2018-07-16T05:54:16.934Z,73.26
2018-07-16T05:56:46.331Z,72.52
2018-07-16T05:59:15.699Z,72.38
2018-07-16T06:01:45.057Z,71.03
2018-07-16T06:04:14.387Z,70.75
2018-07-16T06:06:43.709Z,70.13
2018-07-16T06:09:13.047Z,70.56
2018-07-16T06:11:42.371Z,70.44
2018-07-16T06:14:11.740Z,70.94
2018-07-16T06:16:41.079Z,69.33
2018-07-16T06:19:10.448Z,68.64
2018-07-16T06:21:39.865Z,67.98
2018-07-16T06:24:09.214Z,67.66
2018-07-16T06:26:38.623Z,67.16
2018-07-16T06:29:07.956Z,66.25
2018-07-16T06:31:37.299Z,64.84
2018-07-16T06:34:06.815Z,64.51
2018-07-16T06:36:36.156Z,63.66
2018-07-16T06:39:06.128Z,61.90
2018-07-16T06:41:35.854Z,62.75
2018-07-16T06:44:04.806Z,62.25
2018-07-16T06:46:34.180Z,62.47
2018-07-16T06:49:03.613Z,62.83
2018-07-16T06:51:33.280Z,61.38
2018-07-16T06:54:02.925Z,60.54
2018-07-16T06:56:32.422Z,60.37
2018-07-16T06:59:01.763Z,60.68
2018-07-16T07:01:31.175Z,61.33
2018-07-16T07:04:00.504Z,58.85
2018-07-16T07:06:30.663Z,60.20
2018-07-16T07:09:00.372Z,58.96
2018-07-16T07:11:29.665Z,58.74
2018-07-16T07:13:58.991Z,59.43
2018-07-16T07:16:28.344Z,59.13
2018-07-16T07:18:57.777Z,57.94
2018-07-16T07:21:27.118Z,58.73
2018-07-16T07:23:56.439Z,59.20
2018-07-16T07:26:25.766Z,57.42
2018-07-16T07:28:55.138Z,58.00
2018-07-16T07:31:24.493Z,59.19
2018-07-16T07:33:53.805Z,57.45
2018-07-16T07:36:23.144Z,57.77
2018-07-16T07:38:52.459Z,57.76
2018-07-16T07:41:21.811Z,55.75
2018-07-16T07:43:51.145Z,56.26
2018-07-16T07:46:20.520Z,56.45
2018-07-16T07:48:49.856Z,54.80
2018-07-16T07:51:19.181Z,56.36
2018-07-16T07:53:48.532Z,55.60
2018-07-16T07:56:17.954Z,55.95
2018-07-16T07:58:47.407Z,55.85
2018-07-16T08:01:16.753Z,58.66
2018-07-16T08:03:46.064Z,58.90
2018-07-16T08:06:15.440Z,57.19
2018-07-16T08:08:44.793Z,57.06
2018-07-16T08:11:14.120Z,57.15
2018-07-16T08:13:43.523Z,55.69
2018-07-16T08:16:12.814Z,56.50
2018-07-16T08:18:42.132Z,57.07
2018-07-16T08:21:11.460Z,56.34
2018-07-16T08:23:40.874Z,56.40
2018-07-16T08:26:10.228Z,56.33
2018-07-16T08:28:39.544Z,58.54
2018-07-16T08:31:08.896Z,56.12
2018-07-16T08:33:38.282Z,57.53
2018-07-16T08:36:07.595Z,58.47
2018-07-16T08:38:36.906Z,57.23
2018-07-16T08:41:06.300Z,57.56
2018-07-16T08:43:35.629Z,55.47
2018-07-16T08:46:04.964Z,56.04
2018-07-16T08:48:34.288Z,56.40
2018-07-16T08:51:03.636Z,55.83
2018-07-16T08:53:32.972Z,56.78
2018-07-16T08:56:02.480Z,56.30
2018-07-16T08:58:31.822Z,55.05
2018-07-16T09:01:01.212Z,55.92
2018-07-16T09:03:30.536Z,55.11
2018-07-16T09:06:04.360Z,53.32
2018-07-16T09:08:34.863Z,53.97
2018-07-16T09:11:04.391Z,53.01
2018-07-16T09:13:33.935Z,52.97
2018-07-16T09:16:03.442Z,54.14
2018-07-16T09:18:32.753Z,54.34
2018-07-16T09:21:02.464Z,54.58
2018-07-16T09:23:31.839Z,56.98
2018-07-16T09:26:01.174Z,56.29
2018-07-16T09:28:30.556Z,54.64
2018-07-16T09:30:59.875Z,51.39
2018-07-16T09:33:29.204Z,52.22
2018-07-16T09:35:58.541Z,52.78
2018-07-16T09:38:27.865Z,52.57
2018-07-16T09:40:57.234Z,52.58
2018-07-16T09:43:26.541Z,51.90
2018-07-16T09:45:55.856Z,53.00
2018-07-16T09:48:25.193Z,55.96
2018-07-16T09:50:54.524Z,52.49
2018-07-16T09:53:23.844Z,51.70
2018-07-16T09:55:53.180Z,51.31
2018-07-16T09:58:22.498Z,52.41
2018-07-16T10:00:57.036Z,51.23
2018-07-16T10:03:26.396Z,52.87
2018-07-16T10:05:55.754Z,52.09
2018-07-16T10:08:25.111Z,51.70
2018-07-16T10:10:54.424Z,53.38
2018-07-16T10:13:23.764Z,50.80
2018-07-16T10:15:53.092Z,49.97
2018-07-16T10:18:22.408Z,50.69
2018-07-16T10:20:51.765Z,52.14
2018-07-16T10:23:21.088Z,52.73
2018-07-16T10:25:50.477Z,50.40
2018-07-16T10:28:19.740Z,51.45
2018-07-16T10:30:49.105Z,50.00
2018-07-16T10:33:18.432Z,51.13
2018-07-16T10:35:47.770Z,50.13
2018-07-16T10:38:17.113Z,49.50
2018-07-16T10:40:46.481Z,50.62
2018-07-16T10:43:15.826Z,53.29
2018-07-16T10:45:45.132Z,52.54
2018-07-16T10:48:14.455Z,52.20
2018-07-16T10:50:44.432Z,48.16
2018-07-16T10:53:13.767Z,50.34
2018-07-16T10:55:43.100Z,48.35
2018-07-16T10:58:12.427Z,48.02
2018-07-16T11:00:41.761Z,48.21
2018-07-16T11:03:10.860Z,46.98
2018-07-16T11:05:40.153Z,46.84
2018-07-16T11:08:09.548Z,48.25
2018-07-16T11:10:38.876Z,45.74
2018-07-16T11:13:08.221Z,46.86
2018-07-16T11:15:37.541Z,47.35
2018-07-16T11:18:06.864Z,45.59
2018-07-16T11:20:36.375Z,45.42
2018-07-16T11:23:05.451Z,44.93
2018-07-16T11:25:34.783Z,43.61
2018-07-16T11:28:04.101Z,44.00
2018-07-16T11:30:33.521Z,44.57
2018-07-16T11:33:02.849Z,42.25
2018-07-16T11:35:32.287Z,43.34
2018-07-16T11:38:01.531Z,40.19
2018-07-16T11:40:30.909Z,41.44
2018-07-16T11:43:00.232Z,41.50
2018-07-16T11:45:29.596Z,38.38
2018-07-16T11:47:58.907Z,39.31
2018-07-16T11:50:28.323Z,38.41
2018-07-16T11:52:57.712Z,36.14
2018-07-16T11:55:27.218Z,36.77
2018-07-16T11:57:56.537Z,38.95
2018-07-16T12:00:25.944Z,37.69
2018-07-16T12:02:55.284Z,39.81
2018-07-16T12:05:24.660Z,39.25
2018-07-16T12:07:53.959Z,40.51
2018-07-16T12:10:23.291Z,40.44
2018-07-16T12:12:52.612Z,38.00
2018-07-16T12:15:21.673Z,41.28
2018-07-16T12:17:51.040Z,38.32
2018-07-16T12:20:20.402Z,38.80
2018-07-16T12:22:49.784Z,37.07
2018-07-16T12:25:19.091Z,37.51
2018-07-16T12:27:48.411Z,36.14
2018-07-16T12:30:17.723Z,36.16
2018-07-16T12:32:47.094Z,35.84
2018-07-16T12:35:16.408Z,36.95
2018-07-16T12:37:45.730Z,36.08
2018-07-16T12:40:15.049Z,40.13
2018-07-16T12:42:44.355Z,38.58
2018-07-16T12:45:13.726Z,38.63
2018-07-16T12:47:43.060Z,37.85
2018-07-16T12:50:12.380Z,35.74
2018-07-16T12:52:41.711Z,38.24
2018-07-16T12:55:11.037Z,37.28
2018-07-16T12:57:40.356Z,38.02
2018-07-16T13:00:09.729Z,37.17
2018-07-16T13:02:39.063Z,35.79
2018-07-16T13:05:08.437Z,36.38
2018-07-16T13:07:37.764Z,36.16
2018-07-16T13:10:07.171Z,36.88
2018-07-16T13:12:36.507Z,35.93
2018-07-16T13:15:06.029Z,35.23
2018-07-16T13:17:35.372Z,35.85
2018-07-16T13:20:04.726Z,33.51
2018-07-16T13:22:34.093Z,34.83
2018-07-16T13:25:03.494Z,34.32
2018-07-16T13:27:32.809Z,36.65
2018-07-16T13:30:02.134Z,33.69
2018-07-16T13:32:31.461Z,32.93
2018-07-16T13:35:00.790Z,35.17
2018-07-16T13:37:30.157Z,31.72
2018-07-16T13:39:59.477Z,35.21
2018-07-16T13:42:28.813Z,34.66
2018-07-16T13:44:58.168Z,35.18
2018-07-16T13:47:27.490Z,36.31
2018-07-16T13:49:56.813Z,34.62
2018-07-16T13:52:26.136Z,35.42
2018-07-16T13:54:55.468Z,36.17
2018-07-16T13:57:24.818Z,35.94
2018-07-16T13:59:54.197Z,37.14
2018-07-16T14:02:23.516Z,36.55
2018-07-16T14:04:52.849Z,38.51
2018-07-16T14:07:22.307Z,37.20
2018-07-16T14:09:51.631Z,37.16
2018-07-16T14:12:21.004Z,36.00
2018-07-16T14:14:50.324Z,37.02
2018-07-16T14:17:19.678Z,38.45
2018-07-16T14:19:48.748Z,38.74
2018-07-16T14:22:18.071Z,40.49
2018-07-16T14:24:47.495Z,39.70
2018-07-16T14:27:17.007Z,40.32
2018-07-16T14:29:46.397Z,39.79
2018-07-16T14:32:15.701Z,41.02
2018-07-16T14:34:45.030Z,39.87
2018-07-16T14:37:14.370Z,40.20
2018-07-16T14:39:43.771Z,41.19
2018-07-16T14:42:13.057Z,41.35
2018-07-16T14:44:42.399Z,41.03
2018-07-16T14:47:11.964Z,39.97
2018-07-16T14:49:41.329Z,39.94
2018-07-16T14:52:10.654Z,40.00
2018-07-16T14:54:39.975Z,39.45
2018-07-16T14:57:09.471Z,37.92
2018-07-16T14:59:38.741Z,36.43
2018-07-16T15:02:08.088Z,38.10
2018-07-16T15:04:37.412Z,36.93
2018-07-16T15:07:06.740Z,38.78
2018-07-16T15:09:36.062Z,40.09
2018-07-16T15:12:05.378Z,39.52
2018-07-16T15:14:34.709Z,36.88
2018-07-16T15:17:04.350Z,35.85
2018-07-16T15:19:33.663Z,35.99
2018-07-16T15:22:03.007Z,35.48
2018-07-16T15:24:32.350Z,35.42
2018-07-16T15:27:01.761Z,36.67
2018-07-16T15:29:31.109Z,39.07
2018-07-16T15:32:00.480Z,40.25
2018-07-16T15:34:29.820Z,40.36
2018-07-16T15:36:59.168Z,37.40
2018-07-16T15:39:28.473Z,35.26
2018-07-16T15:41:57.808Z,32.56
2018-07-16T15:44:27.177Z,31.75
2018-07-16T15:46:56.558Z,30.31
2018-07-16T15:49:25.833Z,31.74
2018-07-16T15:51:55.275Z,31.22
2018-07-16T15:54:24.664Z,28.43
2018-07-16T15:56:53.976Z,27.52
2018-07-16T15:59:23.347Z,26.91
2018-07-16T16:01:52.669Z,26.06
2018-07-16T16:04:21.997Z,26.02
2018-07-16T16:06:51.309Z,25.63
2018-07-16T16:09:20.668Z,25.24
2018-07-16T16:11:50.034Z,27.59
2018-07-16T16:14:19.458Z,27.81
2018-07-16T16:16:48.938Z,29.84
2018-07-16T16:19:18.269Z,29.84
2018-07-16T16:21:47.758Z,29.12
2018-07-16T16:24:17.131Z,27.58
2018-07-16T16:26:46.492Z,27.57
2018-07-16T16:29:16.012Z,26.82
2018-07-16T16:31:45.410Z,26.66
2018-07-16T16:34:14.732Z,26.92
2018-07-16T16:36:44.083Z,26.16
2018-07-16T16:39:13.431Z,27.43
2018-07-16T16:41:42.807Z,26.21
2018-07-16T16:44:12.153Z,26.33
2018-07-16T16:46:41.520Z,25.84
2018-07-16T16:49:10.928Z,25.87
2018-07-16T16:51:40.240Z,24.77
2018-07-16T16:54:09.676Z,25.57
2018-07-16T16:56:39.033Z,27.10
2018-07-16T16:59:08.524Z,28.09
2018-07-16T17:01:38.044Z,27.65
2018-07-16T17:04:07.472Z,27.55
2018-07-16T17:06:36.864Z,28.56
2018-07-16T17:09:07.568Z,28.48
2018-07-16T17:11:36.897Z,28.86
2018-07-16T17:14:06.217Z,30.45
2018-07-16T17:16:35.594Z,30.38
2018-07-16T17:19:04.960Z,30.15
2018-07-16T17:21:34.341Z,28.53
2018-07-16T17:24:04.137Z,31.27
2018-07-16T17:26:33.475Z,31.49
2018-07-16T17:29:02.824Z,32.97
2018-07-16T17:31:32.151Z,34.08
2018-07-16T17:34:01.468Z,33.92
2018-07-16T17:36:30.816Z,34.53
2018-07-16T17:39:00.147Z,36.33
2018-07-16T17:41:29.463Z,37.41
2018-07-16T17:43:58.801Z,39.28
2018-07-16T17:46:28.145Z,40.01
2018-07-16T17:48:57.493Z,40.81
2018-07-16T17:51:26.574Z,40.99
2018-07-16T17:53:55.912Z,41.23
2018-07-16T17:56:25.312Z,42.44
2018-07-16T17:58:54.620Z,43.27
2018-07-16T18:01:24.011Z,41.64
2018-07-16T18:03:53.281Z,44.30
2018-07-16T18:06:23.028Z,45.42
2018-07-16T18:08:52.411Z,43.56
2018-07-16T18:20:19.839Z,43.63
2018-07-16T18:22:49.358Z,48.63
2018-07-16T18:25:18.729Z,49.25
2018-07-16T18:27:48.087Z,48.44
2018-07-16T18:30:17.424Z,49.54
2018-07-16T18:32:46.797Z,49.55
2018-07-16T18:35:16.164Z,47.94
2018-07-16T18:37:45.519Z,46.59
2018-07-16T18:40:14.856Z,47.24
2018-07-16T18:42:44.216Z,47.46
2018-07-16T18:45:13.568Z,48.48
2018-07-16T18:47:42.904Z,47.50
2018-07-16T18:50:12.262Z,48.92
2018-07-16T18:52:41.600Z,50.16
2018-07-16T18:55:10.963Z,48.83
2018-07-16T18:57:40.323Z,50.38
2018-07-16T19:00:10.536Z,50.07
2018-07-16T19:02:39.880Z,50.89
2018-07-16T19:05:09.488Z,52.93
2018-07-16T19:07:38.850Z,54.78
2018-07-16T19:10:08.192Z,56.46
2018-07-16T19:12:37.538Z,57.14
2018-07-16T19:15:12.884Z,57.22
2018-07-16T19:17:42.333Z,57.66
2018-07-16T19:20:11.673Z,56.14
2018-07-16T19:22:41.022Z,58.93
2018-07-16T19:25:10.385Z,59.14
2018-07-16T19:27:39.765Z,61.28
2018-07-16T19:30:09.236Z,61.31
2018-07-16T19:32:38.757Z,60.40
2018-07-16T19:35:08.354Z,59.15
2018-07-16T19:37:38.091Z,59.09
2018-07-16T19:40:08.859Z,59.56
2018-07-16T19:42:38.957Z,60.76
2018-07-16T19:45:08.412Z,62.40
2018-07-16T19:47:37.837Z,61.82
2018-07-16T19:50:07.266Z,62.29
2018-07-16T19:52:37.135Z,61.26
2018-07-16T19:55:06.685Z,61.90
2018-07-16T19:57:36.297Z,63.26
2018-07-16T20:00:07.322Z,61.66
2018-07-16T20:02:36.696Z,62.93
2018-07-16T20:05:06.362Z,63.32
2018-07-16T20:07:35.688Z,63.35
2018-07-16T20:10:05.391Z,63.34
2018-07-16T20:12:36.143Z,64.14
2018-07-16T20:15:08.215Z,63.32
2018-07-16T20:17:37.493Z,63.83
2018-07-16T20:20:09.352Z,61.64
2018-07-16T20:22:38.839Z,63.07
2018-07-16T20:25:09.269Z,64.36
2018-07-16T20:27:38.596Z,65.68
2018-07-16T20:30:09.869Z,64.73
2018-07-16T20:32:39.306Z,65.37
2018-07-16T20:35:08.714Z,65.45
2018-07-16T20:37:38.160Z,63.77
2018-07-16T20:40:07.440Z,63.98
2018-07-16T20:42:36.780Z,63.26
2018-07-16T20:45:06.204Z,64.31
2018-07-16T20:47:35.530Z,64.67
2018-07-16T20:50:05.405Z,65.28
2018-07-16T20:52:34.721Z,64.95
2018-07-16T20:55:04.085Z,63.39
2018-07-16T20:57:33.424Z,64.29
2018-07-16T21:00:02.972Z,65.78
2018-07-16T21:02:32.336Z,65.90
2018-07-16T21:05:01.672Z,66.78
2018-07-16T21:07:31.108Z,67.16
2018-07-16T21:10:00.446Z,67.68
2018-07-16T21:12:29.777Z,68.37
2018-07-16T21:14:59.183Z,69.13
2018-07-16T21:17:28.505Z,68.50
2018-07-16T21:19:57.844Z,70.01
2018-07-16T21:22:27.157Z,70.62
2018-07-16T21:24:56.525Z,70.40
2018-07-16T21:27:25.878Z,70.90
2018-07-16T21:29:55.213Z,71.40
2018-07-16T21:32:24.541Z,70.84
2018-07-16T21:34:53.898Z,71.37
2018-07-16T21:37:23.226Z,71.35
2018-07-16T21:39:52.602Z,70.56
2018-07-16T21:42:22.025Z,70.99
2018-07-16T21:44:51.368Z,69.99
2018-07-16T21:47:20.688Z,71.15
2018-07-16T21:49:50.019Z,72.83
2018-07-16T21:52:19.351Z,71.03
2018-07-16T21:54:48.668Z,71.79
2018-07-16T21:57:18.004Z,72.90
2018-07-16T21:59:47.344Z,71.88
2018-07-16T22:02:16.673Z,71.89
2018-07-16T22:04:46.010Z,71.94
2018-07-16T22:07:15.318Z,72.72
2018-07-16T22:09:44.636Z,71.91
2018-07-16T22:12:13.968Z,72.21
2018-07-16T22:14:43.311Z,72.64
2018-07-16T22:17:12.628Z,72.52
2018-07-16T22:19:41.944Z,72.28
2018-07-16T22:22:11.006Z,72.82
2018-07-16T22:24:40.348Z,72.56
2018-07-16T22:27:09.694Z,73.33
2018-07-16T22:29:39.003Z,72.27
2018-07-16T22:32:08.333Z,72.14
2018-07-16T22:34:37.654Z,73.24
2018-07-16T22:37:06.988Z,74.13
2018-07-16T22:39:36.336Z,73.61
2018-07-16T22:42:05.656Z,74.33
2018-07-16T22:44:35.012Z,74.36
2018-07-16T22:47:04.333Z,74.48
2018-07-16T22:49:33.690Z,75.15
2018-07-16T22:52:03.012Z,74.32
2018-07-16T22:54:32.332Z,76.46
2018-07-16T22:57:01.639Z,75.52
2018-07-16T22:59:31.021Z,76.06
2018-07-16T23:02:00.330Z,75.68
2018-07-16T23:04:29.640Z,75.82
2018-07-16T23:10:21.043Z,75.80
2018-07-16T23:12:50.383Z,76.53
2018-07-16T23:15:19.705Z,75.99
2018-07-16T23:17:49.077Z,75.90
2018-07-16T23:20:18.412Z,76.17
2018-07-16T23:22:53.304Z,76.35
2018-07-16T23:25:23.649Z,77.09
2018-07-16T23:27:53.001Z,78.04
2018-07-16T23:30:22.329Z,78.54
2018-07-16T23:32:51.693Z,79.10
2018-07-16T23:35:21.064Z,78.50
2018-07-16T23:37:50.370Z,78.32
2018-07-16T23:40:19.704Z,78.26
2018-07-16T23:42:49.071Z,79.66
2018-07-16T23:45:18.373Z,79.45
2018-07-16T23:47:47.803Z,79.94
2018-07-16T23:50:17.185Z,79.58
2018-07-16T23:52:46.485Z,80.21
2018-07-16T23:55:15.853Z,80.93
2018-07-16T23:57:45.172Z,79.91
